sensor_id;sensor_type;location;lat;lon;timestamp;P1;durP1;ratioP1;P2;durP2;ratioP2
15230;SDS011;32569;51.762;8.564;2022-07-26T00:00:22;4.53;;;1.73;;
15230;SDS011;32569;51.762;8.564;2022-07-26T00:02:49;3.00;;;1.83;;
15230;SDS011;32569;51.762;8.564;2022-07-26T00:05:17;3.60;;;1.47;;
15230;SDS011;32569;51.762;8.564;2022-07-26T00:07:44;3.30;;;1.80;;
15230;SDS011;32569;51.762;8.564;2022-07-26T00:10:12;4.90;;;1.97;;
15230;SDS011;32569;51.762;8.564;2022-07-26T00:12:38;4.17;;;1.50;;
15230;SDS011;32569;51.762;8.564;2022-07-26T00:15:06;4.53;;;1.77;;
15230;SDS011;32569;51.762;8.564;2022-07-26T00:17:34;3.90;;;2.00;;
15230;SDS011;32569;51.762;8.564;2022-07-26T00:20:01;3.23;;;1.83;;
15230;SDS011;32569;51.762;8.564;2022-07-26T00:22:30;4.23;;;1.73;;
15230;SDS011;32569;51.762;8.564;2022-07-26T00:24:59;5.53;;;1.60;;
15230;SDS011;32569;51.762;8.564;2022-07-26T00:27:27;4.03;;;1.50;;
15230;SDS011;32569;51.762;8.564;2022-07-26T00:29:53;4.20;;;1.40;;
15230;SDS011;32569;51.762;8.564;2022-07-26T00:32:20;5.47;;;1.63;;
15230;SDS011;32569;51.762;8.564;2022-07-26T00:34:46;4.30;;;2.20;;
15230;SDS011;32569;51.762;8.564;2022-07-26T00:37:15;7.30;;;1.70;;
15230;SDS011;32569;51.762;8.564;2022-07-26T00:39:43;7.43;;;2.00;;
15230;SDS011;32569;51.762;8.564;2022-07-26T00:42:10;5.27;;;1.73;;
15230;SDS011;32569;51.762;8.564;2022-07-26T00:44:38;4.27;;;1.83;;
15230;SDS011;32569;51.762;8.564;2022-07-26T00:47:05;5.57;;;1.97;;
15230;SDS011;32569;51.762;8.564;2022-07-26T00:49:32;4.80;;;1.70;;
15230;SDS011;32569;51.762;8.564;2022-07-26T00:51:59;6.07;;;1.97;;
15230;SDS011;32569;51.762;8.564;2022-07-26T00:54:26;4.03;;;1.80;;
15230;SDS011;32569;51.762;8.564;2022-07-26T00:56:54;4.20;;;1.70;;
15230;SDS011;32569;51.762;8.564;2022-07-26T00:59:20;4.73;;;1.97;;
15230;SDS011;32569;51.762;8.564;2022-07-26T01:01:47;4.17;;;1.70;;
15230;SDS011;32569;51.762;8.564;2022-07-26T01:04:14;3.87;;;1.80;;
15230;SDS011;32569;51.762;8.564;2022-07-26T01:06:40;4.57;;;1.90;;
15230;SDS011;32569;51.762;8.564;2022-07-26T01:09:07;4.53;;;1.70;;
15230;SDS011;32569;51.762;8.564;2022-07-26T01:11:35;5.50;;;1.67;;
15230;SDS011;32569;51.762;8.564;2022-07-26T01:14:03;5.83;;;1.80;;
15230;SDS011;32569;51.762;8.564;2022-07-26T01:16:30;4.60;;;1.87;;
15230;SDS011;32569;51.762;8.564;2022-07-26T01:18:57;4.77;;;1.90;;
15230;SDS011;32569;51.762;8.564;2022-07-26T01:21:28;3.73;;;1.40;;
15230;SDS011;32569;51.762;8.564;2022-07-26T01:23:55;3.03;;;1.80;;
15230;SDS011;32569;51.762;8.564;2022-07-26T01:26:21;4.57;;;1.80;;
15230;SDS011;32569;51.762;8.564;2022-07-26T01:28:48;6.27;;;1.70;;
15230;SDS011;32569;51.762;8.564;2022-07-26T01:31:15;3.40;;;1.43;;
15230;SDS011;32569;51.762;8.564;2022-07-26T01:33:42;2.60;;;1.43;;
15230;SDS011;32569;51.762;8.564;2022-07-26T01:36:09;3.83;;;1.87;;
15230;SDS011;32569;51.762;8.564;2022-07-26T01:38:37;4.37;;;1.70;;
15230;SDS011;32569;51.762;8.564;2022-07-26T01:41:04;2.93;;;1.60;;
15230;SDS011;32569;51.762;8.564;2022-07-26T01:43:31;1.47;;;1.37;;
15230;SDS011;32569;51.762;8.564;2022-07-26T01:45:58;1.97;;;1.40;;
15230;SDS011;32569;51.762;8.564;2022-07-26T01:48:25;8.07;;;1.90;;
15230;SDS011;32569;51.762;8.564;2022-07-26T01:50:51;2.50;;;1.30;;
15230;SDS011;32569;51.762;8.564;2022-07-26T01:53:18;3.70;;;1.57;;
15230;SDS011;32569;51.762;8.564;2022-07-26T01:55:46;2.03;;;1.57;;
15230;SDS011;32569;51.762;8.564;2022-07-26T01:58:12;3.50;;;1.70;;
15230;SDS011;32569;51.762;8.564;2022-07-26T02:00:39;4.17;;;1.63;;
15230;SDS011;32569;51.762;8.564;2022-07-26T02:03:06;4.37;;;1.50;;
15230;SDS011;32569;51.762;8.564;2022-07-26T02:05:33;3.13;;;1.50;;
15230;SDS011;32569;51.762;8.564;2022-07-26T02:07:59;2.03;;;1.33;;
15230;SDS011;32569;51.762;8.564;2022-07-26T02:10:26;1.87;;;1.47;;
15230;SDS011;32569;51.762;8.564;2022-07-26T02:13:15;1.70;;;1.60;;
15230;SDS011;32569;51.762;8.564;2022-07-26T02:15:42;2.57;;;1.80;;
15230;SDS011;32569;51.762;8.564;2022-07-26T02:18:09;3.77;;;1.90;;
15230;SDS011;32569;51.762;8.564;2022-07-26T02:20:36;3.20;;;1.70;;
15230;SDS011;32569;51.762;8.564;2022-07-26T02:23:02;3.33;;;1.70;;
15230;SDS011;32569;51.762;8.564;2022-07-26T02:25:29;2.70;;;1.80;;
15230;SDS011;32569;51.762;8.564;2022-07-26T02:27:56;3.30;;;2.00;;
15230;SDS011;32569;51.762;8.564;2022-07-26T02:30:26;4.00;;;2.00;;
15230;SDS011;32569;51.762;8.564;2022-07-26T02:32:53;2.10;;;1.83;;
15230;SDS011;32569;51.762;8.564;2022-07-26T02:35:19;3.97;;;1.80;;
15230;SDS011;32569;51.762;8.564;2022-07-26T02:37:46;5.60;;;2.07;;
15230;SDS011;32569;51.762;8.564;2022-07-26T02:40:12;4.20;;;2.17;;
15230;SDS011;32569;51.762;8.564;2022-07-26T02:42:39;3.63;;;2.10;;
15230;SDS011;32569;51.762;8.564;2022-07-26T02:45:06;2.20;;;1.83;;
15230;SDS011;32569;51.762;8.564;2022-07-26T02:47:37;4.63;;;2.07;;
15230;SDS011;32569;51.762;8.564;2022-07-26T02:50:10;4.60;;;2.30;;
15230;SDS011;32569;51.762;8.564;2022-07-26T02:52:37;4.40;;;2.30;;
15230;SDS011;32569;51.762;8.564;2022-07-26T02:55:04;5.10;;;2.30;;
15230;SDS011;32569;51.762;8.564;2022-07-26T02:57:31;3.60;;;2.20;;
15230;SDS011;32569;51.762;8.564;2022-07-26T02:59:58;4.00;;;2.33;;
15230;SDS011;32569;51.762;8.564;2022-07-26T03:02:25;4.17;;;2.33;;
15230;SDS011;32569;51.762;8.564;2022-07-26T03:04:52;5.43;;;2.00;;
15230;SDS011;32569;51.762;8.564;2022-07-26T03:07:19;3.40;;;2.30;;
15230;SDS011;32569;51.762;8.564;2022-07-26T03:09:46;3.20;;;2.27;;
15230;SDS011;32569;51.762;8.564;2022-07-26T03:12:12;5.33;;;2.20;;
15230;SDS011;32569;51.762;8.564;2022-07-26T03:14:39;4.77;;;2.33;;
15230;SDS011;32569;51.762;8.564;2022-07-26T03:17:05;4.80;;;2.20;;
15230;SDS011;32569;51.762;8.564;2022-07-26T03:19:32;4.77;;;2.40;;
15230;SDS011;32569;51.762;8.564;2022-07-26T03:22:00;3.73;;;2.47;;
15230;SDS011;32569;51.762;8.564;2022-07-26T03:24:42;3.83;;;2.20;;
15230;SDS011;32569;51.762;8.564;2022-07-26T03:27:08;3.73;;;2.50;;
15230;SDS011;32569;51.762;8.564;2022-07-26T03:29:35;5.10;;;2.60;;
15230;SDS011;32569;51.762;8.564;2022-07-26T03:32:02;4.33;;;2.50;;
15230;SDS011;32569;51.762;8.564;2022-07-26T03:34:28;4.43;;;2.70;;
15230;SDS011;32569;51.762;8.564;2022-07-26T03:36:55;5.40;;;2.50;;
15230;SDS011;32569;51.762;8.564;2022-07-26T03:39:23;4.83;;;2.80;;
15230;SDS011;32569;51.762;8.564;2022-07-26T03:41:50;4.23;;;3.07;;
15230;SDS011;32569;51.762;8.564;2022-07-26T03:44:16;5.83;;;2.20;;
15230;SDS011;32569;51.762;8.564;2022-07-26T03:46:43;5.33;;;2.50;;
15230;SDS011;32569;51.762;8.564;2022-07-26T03:49:09;3.57;;;2.23;;
15230;SDS011;32569;51.762;8.564;2022-07-26T03:51:36;7.10;;;3.10;;
15230;SDS011;32569;51.762;8.564;2022-07-26T03:54:03;6.33;;;2.20;;
15230;SDS011;32569;51.762;8.564;2022-07-26T03:56:31;4.43;;;2.27;;
15230;SDS011;32569;51.762;8.564;2022-07-26T03:58:57;5.90;;;2.80;;
15230;SDS011;32569;51.762;8.564;2022-07-26T04:01:26;3.73;;;2.00;;
15230;SDS011;32569;51.762;8.564;2022-07-26T04:03:52;3.67;;;2.27;;
15230;SDS011;32569;51.762;8.564;2022-07-26T04:06:19;8.10;;;2.63;;
15230;SDS011;32569;51.762;8.564;2022-07-26T04:08:46;2.87;;;1.93;;
15230;SDS011;32569;51.762;8.564;2022-07-26T04:11:12;7.40;;;2.20;;
15230;SDS011;32569;51.762;8.564;2022-07-26T04:13:40;4.10;;;2.57;;
15230;SDS011;32569;51.762;8.564;2022-07-26T04:16:07;5.80;;;2.30;;
15230;SDS011;32569;51.762;8.564;2022-07-26T04:18:34;4.23;;;2.33;;
15230;SDS011;32569;51.762;8.564;2022-07-26T04:21:00;3.83;;;2.30;;
15230;SDS011;32569;51.762;8.564;2022-07-26T04:23:27;4.73;;;2.67;;
15230;SDS011;32569;51.762;8.564;2022-07-26T04:25:53;3.10;;;2.20;;
15230;SDS011;32569;51.762;8.564;2022-07-26T04:28:20;4.10;;;2.57;;
15230;SDS011;32569;51.762;8.564;2022-07-26T04:30:49;4.53;;;2.30;;
15230;SDS011;32569;51.762;8.564;2022-07-26T04:33:16;4.93;;;2.63;;
15230;SDS011;32569;51.762;8.564;2022-07-26T04:35:42;4.70;;;2.70;;
15230;SDS011;32569;51.762;8.564;2022-07-26T04:38:09;3.63;;;2.30;;
15230;SDS011;32569;51.762;8.564;2022-07-26T04:40:36;4.37;;;2.50;;
15230;SDS011;32569;51.762;8.564;2022-07-26T04:43:03;3.90;;;2.40;;
15230;SDS011;32569;51.762;8.564;2022-07-26T04:45:29;4.90;;;2.63;;
15230;SDS011;32569;51.762;8.564;2022-07-26T04:47:57;5.27;;;2.80;;
15230;SDS011;32569;51.762;8.564;2022-07-26T04:50:24;5.03;;;2.33;;
15230;SDS011;32569;51.762;8.564;2022-07-26T04:52:52;4.03;;;2.43;;
15230;SDS011;32569;51.762;8.564;2022-07-26T04:55:20;5.20;;;2.67;;
15230;SDS011;32569;51.762;8.564;2022-07-26T04:57:47;4.57;;;2.50;;
15230;SDS011;32569;51.762;8.564;2022-07-26T05:00:15;5.30;;;2.40;;
15230;SDS011;32569;51.762;8.564;2022-07-26T05:02:45;5.50;;;2.90;;
15230;SDS011;32569;51.762;8.564;2022-07-26T05:05:14;6.80;;;2.40;;
15230;SDS011;32569;51.762;8.564;2022-07-26T05:07:41;6.63;;;2.40;;
15230;SDS011;32569;51.762;8.564;2022-07-26T05:10:09;4.20;;;2.70;;
15230;SDS011;32569;51.762;8.564;2022-07-26T05:12:36;3.47;;;2.40;;
15230;SDS011;32569;51.762;8.564;2022-07-26T05:15:03;7.40;;;2.83;;
15230;SDS011;32569;51.762;8.564;2022-07-26T05:17:33;4.67;;;2.70;;
15230;SDS011;32569;51.762;8.564;2022-07-26T05:20:02;5.40;;;3.00;;
15230;SDS011;32569;51.762;8.564;2022-07-26T05:22:32;6.00;;;3.00;;
15230;SDS011;32569;51.762;8.564;2022-07-26T05:24:58;5.07;;;2.70;;
15230;SDS011;32569;51.762;8.564;2022-07-26T05:27:25;4.47;;;2.80;;
15230;SDS011;32569;51.762;8.564;2022-07-26T05:29:52;5.80;;;2.70;;
15230;SDS011;32569;51.762;8.564;2022-07-26T05:32:20;4.70;;;2.80;;
15230;SDS011;32569;51.762;8.564;2022-07-26T05:34:46;5.77;;;2.73;;
15230;SDS011;32569;51.762;8.564;2022-07-26T05:37:13;5.27;;;2.53;;
15230;SDS011;32569;51.762;8.564;2022-07-26T05:39:41;7.97;;;3.00;;
15230;SDS011;32569;51.762;8.564;2022-07-26T05:42:08;5.73;;;2.93;;
15230;SDS011;32569;51.762;8.564;2022-07-26T05:44:35;5.63;;;2.80;;
15230;SDS011;32569;51.762;8.564;2022-07-26T05:47:02;6.57;;;3.57;;
15230;SDS011;32569;51.762;8.564;2022-07-26T05:49:29;7.07;;;3.10;;
15230;SDS011;32569;51.762;8.564;2022-07-26T05:51:55;6.13;;;3.03;;
15230;SDS011;32569;51.762;8.564;2022-07-26T05:54:22;7.43;;;4.03;;
15230;SDS011;32569;51.762;8.564;2022-07-26T05:56:50;5.13;;;3.33;;
15230;SDS011;32569;51.762;8.564;2022-07-26T05:59:16;7.40;;;3.60;;
15230;SDS011;32569;51.762;8.564;2022-07-26T06:01:43;6.83;;;3.10;;
15230;SDS011;32569;51.762;8.564;2022-07-26T06:04:09;7.37;;;4.20;;
15230;SDS011;32569;51.762;8.564;2022-07-26T06:06:37;6.40;;;3.33;;
15230;SDS011;32569;51.762;8.564;2022-07-26T06:09:03;6.80;;;3.53;;
15230;SDS011;32569;51.762;8.564;2022-07-26T06:11:30;5.63;;;3.43;;
15230;SDS011;32569;51.762;8.564;2022-07-26T06:13:58;6.63;;;3.50;;
15230;SDS011;32569;51.762;8.564;2022-07-26T06:16:24;7.40;;;3.53;;
15230;SDS011;32569;51.762;8.564;2022-07-26T06:18:51;7.17;;;3.73;;
15230;SDS011;32569;51.762;8.564;2022-07-26T06:21:18;6.47;;;3.90;;
15230;SDS011;32569;51.762;8.564;2022-07-26T06:23:44;7.40;;;3.87;;
15230;SDS011;32569;51.762;8.564;2022-07-26T06:26:11;8.00;;;3.90;;
15230;SDS011;32569;51.762;8.564;2022-07-26T06:28:38;10.23;;;4.60;;
15230;SDS011;32569;51.762;8.564;2022-07-26T06:31:06;6.40;;;4.60;;
15230;SDS011;32569;51.762;8.564;2022-07-26T06:33:33;6.70;;;5.30;;
15230;SDS011;32569;51.762;8.564;2022-07-26T06:35:59;8.43;;;5.53;;
15230;SDS011;32569;51.762;8.564;2022-07-26T06:38:26;6.10;;;4.87;;
15230;SDS011;32569;51.762;8.564;2022-07-26T06:40:53;5.90;;;5.30;;
15230;SDS011;32569;51.762;8.564;2022-07-26T06:43:19;7.53;;;5.60;;
15230;SDS011;32569;51.762;8.564;2022-07-26T06:45:46;5.40;;;4.47;;
15230;SDS011;32569;51.762;8.564;2022-07-26T06:48:14;7.33;;;4.37;;
15230;SDS011;32569;51.762;8.564;2022-07-26T06:50:41;6.90;;;4.77;;
15230;SDS011;32569;51.762;8.564;2022-07-26T06:53:08;6.50;;;4.33;;
15230;SDS011;32569;51.762;8.564;2022-07-26T06:55:34;5.23;;;4.40;;
15230;SDS011;32569;51.762;8.564;2022-07-26T06:58:01;4.90;;;3.93;;
15230;SDS011;32569;51.762;8.564;2022-07-26T07:00:28;5.90;;;4.00;;
15230;SDS011;32569;51.762;8.564;2022-07-26T07:02:54;4.10;;;3.40;;
15230;SDS011;32569;51.762;8.564;2022-07-26T07:05:22;7.30;;;3.77;;
15230;SDS011;32569;51.762;8.564;2022-07-26T07:07:49;6.77;;;3.80;;
15230;SDS011;32569;51.762;8.564;2022-07-26T07:10:16;4.10;;;3.70;;
15230;SDS011;32569;51.762;8.564;2022-07-26T07:12:43;8.13;;;3.97;;
15230;SDS011;32569;51.762;8.564;2022-07-26T07:15:09;4.93;;;3.73;;
15230;SDS011;32569;51.762;8.564;2022-07-26T07:17:37;5.33;;;3.63;;
15230;SDS011;32569;51.762;8.564;2022-07-26T07:20:04;7.13;;;3.67;;
15230;SDS011;32569;51.762;8.564;2022-07-26T07:22:32;5.30;;;3.70;;
15230;SDS011;32569;51.762;8.564;2022-07-26T07:24:59;7.13;;;3.70;;
15230;SDS011;32569;51.762;8.564;2022-07-26T07:27:26;7.50;;;3.70;;
15230;SDS011;32569;51.762;8.564;2022-07-26T07:29:52;5.03;;;3.57;;
15230;SDS011;32569;51.762;8.564;2022-07-26T07:32:19;5.37;;;3.30;;
15230;SDS011;32569;51.762;8.564;2022-07-26T07:34:46;4.73;;;3.13;;
15230;SDS011;32569;51.762;8.564;2022-07-26T07:37:13;5.87;;;3.60;;
15230;SDS011;32569;51.762;8.564;2022-07-26T07:39:41;3.67;;;3.10;;
15230;SDS011;32569;51.762;8.564;2022-07-26T07:42:08;7.27;;;3.60;;
15230;SDS011;32569;51.762;8.564;2022-07-26T07:44:34;3.50;;;3.20;;
15230;SDS011;32569;51.762;8.564;2022-07-26T07:47:01;7.17;;;3.27;;
15230;SDS011;32569;51.762;8.564;2022-07-26T07:49:28;6.00;;;3.57;;
15230;SDS011;32569;51.762;8.564;2022-07-26T07:51:55;5.60;;;3.33;;
15230;SDS011;32569;51.762;8.564;2022-07-26T07:54:22;4.80;;;3.47;;
15230;SDS011;32569;51.762;8.564;2022-07-26T07:56:50;9.03;;;4.37;;
15230;SDS011;32569;51.762;8.564;2022-07-26T07:59:20;4.20;;;3.53;;
15230;SDS011;32569;51.762;8.564;2022-07-26T08:01:46;4.83;;;3.53;;
15230;SDS011;32569;51.762;8.564;2022-07-26T08:04:13;6.33;;;4.40;;
15230;SDS011;32569;51.762;8.564;2022-07-26T08:06:40;4.67;;;3.50;;
15230;SDS011;32569;51.762;8.564;2022-07-26T08:09:06;4.43;;;3.70;;
15230;SDS011;32569;51.762;8.564;2022-07-26T08:11:33;5.40;;;4.03;;
15230;SDS011;32569;51.762;8.564;2022-07-26T08:14:01;4.50;;;3.93;;
15230;SDS011;32569;51.762;8.564;2022-07-26T08:16:28;4.67;;;4.00;;
15230;SDS011;32569;51.762;8.564;2022-07-26T08:18:54;5.47;;;4.40;;
15230;SDS011;32569;51.762;8.564;2022-07-26T08:21:21;5.33;;;4.53;;
15230;SDS011;32569;51.762;8.564;2022-07-26T08:23:48;4.47;;;3.53;;
15230;SDS011;32569;51.762;8.564;2022-07-26T08:26:14;5.60;;;4.70;;
15230;SDS011;32569;51.762;8.564;2022-07-26T08:28:41;5.77;;;5.07;;
15230;SDS011;32569;51.762;8.564;2022-07-26T08:31:09;5.43;;;4.17;;
15230;SDS011;32569;51.762;8.564;2022-07-26T08:33:36;6.00;;;5.40;;
15230;SDS011;32569;51.762;8.564;2022-07-26T08:36:03;7.07;;;6.37;;
15230;SDS011;32569;51.762;8.564;2022-07-26T08:38:30;7.07;;;6.17;;
15230;SDS011;32569;51.762;8.564;2022-07-26T08:40:56;7.67;;;5.90;;
15230;SDS011;32569;51.762;8.564;2022-07-26T08:43:24;8.17;;;5.47;;
15230;SDS011;32569;51.762;8.564;2022-07-26T08:45:50;6.43;;;5.27;;
15230;SDS011;32569;51.762;8.564;2022-07-26T08:48:25;6.80;;;6.03;;
15230;SDS011;32569;51.762;8.564;2022-07-26T08:50:52;9.37;;;6.77;;
15230;SDS011;32569;51.762;8.564;2022-07-26T08:53:20;6.60;;;5.93;;
15230;SDS011;32569;51.762;8.564;2022-07-26T08:55:47;8.83;;;7.73;;
15230;SDS011;32569;51.762;8.564;2022-07-26T08:58:14;8.97;;;8.20;;
15230;SDS011;32569;51.762;8.564;2022-07-26T09:00:41;9.67;;;8.77;;
15230;SDS011;32569;51.762;8.564;2022-07-26T09:03:09;12.00;;;10.93;;
15230;SDS011;32569;51.762;8.564;2022-07-26T09:05:50;12.83;;;11.63;;
15230;SDS011;32569;51.762;8.564;2022-07-26T09:08:22;13.60;;;12.17;;
15230;SDS011;32569;51.762;8.564;2022-07-26T09:10:50;12.80;;;11.63;;
15230;SDS011;32569;51.762;8.564;2022-07-26T09:13:17;13.35;;;12.07;;
15230;SDS011;32569;51.762;8.564;2022-07-26T09:15:44;12.90;;;11.87;;
15230;SDS011;32569;51.762;8.564;2022-07-26T09:18:23;12.37;;;11.17;;
15230;SDS011;32569;51.762;8.564;2022-07-26T09:20:52;14.70;;;12.90;;
15230;SDS011;32569;51.762;8.564;2022-07-26T09:23:19;12.23;;;11.17;;
15230;SDS011;32569;51.762;8.564;2022-07-26T09:25:46;11.13;;;10.13;;
15230;SDS011;32569;51.762;8.564;2022-07-26T09:28:22;11.80;;;10.67;;
15230;SDS011;32569;51.762;8.564;2022-07-26T09:30:51;11.07;;;9.97;;
15230;SDS011;32569;51.762;8.564;2022-07-26T09:33:19;11.17;;;10.27;;
15230;SDS011;32569;51.762;8.564;2022-07-26T09:35:58;11.20;;;10.30;;
15230;SDS011;32569;51.762;8.564;2022-07-26T09:38:37;12.47;;;11.20;;
15230;SDS011;32569;51.762;8.564;2022-07-26T09:41:15;10.50;;;9.50;;
15230;SDS011;32569;51.762;8.564;2022-07-26T09:43:43;9.37;;;8.57;;
15230;SDS011;32569;51.762;8.564;2022-07-26T09:46:09;8.60;;;7.80;;
15230;SDS011;32569;51.762;8.564;2022-07-26T09:48:36;8.43;;;7.83;;
15230;SDS011;32569;51.762;8.564;2022-07-26T09:51:05;8.50;;;7.80;;
15230;SDS011;32569;51.762;8.564;2022-07-26T09:53:37;11.03;;;9.90;;
15230;SDS011;32569;51.762;8.564;2022-07-26T09:56:05;12.20;;;10.77;;
15230;SDS011;32569;51.762;8.564;2022-07-26T09:58:32;11.43;;;10.43;;
15230;SDS011;32569;51.762;8.564;2022-07-26T10:00:59;12.40;;;11.37;;
15230;SDS011;32569;51.762;8.564;2022-07-26T10:03:26;13.50;;;12.10;;
15230;SDS011;32569;51.762;8.564;2022-07-26T10:05:55;11.97;;;10.73;;
15230;SDS011;32569;51.762;8.564;2022-07-26T10:08:24;10.93;;;10.13;;
15230;SDS011;32569;51.762;8.564;2022-07-26T10:10:52;11.07;;;10.07;;
15230;SDS011;32569;51.762;8.564;2022-07-26T10:13:25;11.43;;;10.33;;
15230;SDS011;32569;51.762;8.564;2022-07-26T10:15:54;10.77;;;9.87;;
15230;SDS011;32569;51.762;8.564;2022-07-26T10:21:18;3.67;;;2.50;;
15230;SDS011;32569;51.762;8.564;2022-07-26T10:23:49;1.97;;;1.73;;
15230;SDS011;32569;51.762;8.564;2022-07-26T10:26:35;6.83;;;2.20;;
15230;SDS011;32569;51.762;8.564;2022-07-26T10:34:38;2.83;;;2.00;;
15230;SDS011;32569;51.762;8.564;2022-07-26T10:37:06;3.60;;;1.83;;
15230;SDS011;32569;51.762;8.564;2022-07-26T10:39:36;2.27;;;2.03;;
15230;SDS011;32569;51.762;8.564;2022-07-26T10:42:05;3.23;;;2.30;;
15230;SDS011;32569;51.762;8.564;2022-07-26T10:44:33;4.33;;;2.30;;
15230;SDS011;32569;51.762;8.564;2022-07-26T10:47:13;5.07;;;2.47;;
15230;SDS011;32569;51.762;8.564;2022-07-26T10:49:43;3.63;;;2.40;;
15230;SDS011;32569;51.762;8.564;2022-07-26T10:52:19;5.90;;;2.63;;
15230;SDS011;32569;51.762;8.564;2022-07-26T10:57:45;4.00;;;2.50;;
15230;SDS011;32569;51.762;8.564;2022-07-26T11:00:15;2.67;;;2.30;;
15230;SDS011;32569;51.762;8.564;2022-07-26T11:02:47;2.53;;;2.33;;
15230;SDS011;32569;51.762;8.564;2022-07-26T11:05:22;4.20;;;3.00;;
15230;SDS011;32569;51.762;8.564;2022-07-26T11:08:00;3.13;;;2.23;;
15230;SDS011;32569;51.762;8.564;2022-07-26T11:10:35;2.47;;;2.30;;
15230;SDS011;32569;51.762;8.564;2022-07-26T11:13:04;5.23;;;2.63;;
15230;SDS011;32569;51.762;8.564;2022-07-26T11:15:39;2.90;;;2.50;;
15230;SDS011;32569;51.762;8.564;2022-07-26T11:18:10;2.67;;;2.40;;
15230;SDS011;32569;51.762;8.564;2022-07-26T11:20:38;4.53;;;2.40;;
15230;SDS011;32569;51.762;8.564;2022-07-26T11:23:18;2.77;;;2.57;;
15230;SDS011;32569;51.762;8.564;2022-07-26T11:26:08;3.60;;;2.50;;
15230;SDS011;32569;51.762;8.564;2022-07-26T11:31:26;3.97;;;2.77;;
15230;SDS011;32569;51.762;8.564;2022-07-26T11:33:58;3.03;;;2.73;;
15230;SDS011;32569;51.762;8.564;2022-07-26T11:36:32;3.30;;;3.00;;
15230;SDS011;32569;51.762;8.564;2022-07-26T11:39:00;3.10;;;2.90;;
15230;SDS011;32569;51.762;8.564;2022-07-26T11:41:29;3.93;;;3.30;;
15230;SDS011;32569;51.762;8.564;2022-07-26T11:43:57;3.07;;;2.77;;
15230;SDS011;32569;51.762;8.564;2022-07-26T11:46:30;3.20;;;2.87;;
15230;SDS011;32569;51.762;8.564;2022-07-26T11:48:59;3.37;;;2.80;;
15230;SDS011;32569;51.762;8.564;2022-07-26T11:51:26;3.83;;;3.30;;
15230;SDS011;32569;51.762;8.564;2022-07-26T11:53:53;3.77;;;3.00;;
15230;SDS011;32569;51.762;8.564;2022-07-26T11:56:24;4.07;;;3.77;;
15230;SDS011;32569;51.762;8.564;2022-07-26T11:58:54;3.70;;;3.40;;
15230;SDS011;32569;51.762;8.564;2022-07-26T12:01:23;5.90;;;3.23;;
15230;SDS011;32569;51.762;8.564;2022-07-26T12:03:52;3.53;;;3.20;;
15230;SDS011;32569;51.762;8.564;2022-07-26T12:06:20;3.87;;;3.23;;
15230;SDS011;32569;51.762;8.564;2022-07-26T12:08:49;3.37;;;3.07;;
15230;SDS011;32569;51.762;8.564;2022-07-26T12:11:19;6.00;;;3.77;;
15230;SDS011;32569;51.762;8.564;2022-07-26T12:13:47;5.53;;;3.17;;
15230;SDS011;32569;51.762;8.564;2022-07-26T12:16:36;3.83;;;1.70;;
15230;SDS011;32569;51.762;8.564;2022-07-26T12:19:09;1.83;;;1.73;;
15230;SDS011;32569;51.762;8.564;2022-07-26T12:21:48;2.00;;;1.53;;
15230;SDS011;32569;51.762;8.564;2022-07-26T12:27:03;1.47;;;1.37;;
15230;SDS011;32569;51.762;8.564;2022-07-26T12:29:31;2.57;;;1.00;;
15230;SDS011;32569;51.762;8.564;2022-07-26T12:34:55;1.60;;;1.17;;
15230;SDS011;32569;51.762;8.564;2022-07-26T12:37:23;1.67;;;1.17;;
15230;SDS011;32569;51.762;8.564;2022-07-26T12:39:58;1.20;;;1.10;;
15230;SDS011;32569;51.762;8.564;2022-07-26T12:42:27;2.57;;;1.40;;
15230;SDS011;32569;51.762;8.564;2022-07-26T12:44:55;1.27;;;1.20;;
15230;SDS011;32569;51.762;8.564;2022-07-26T12:47:24;2.50;;;1.30;;
15230;SDS011;32569;51.762;8.564;2022-07-26T12:49:51;2.17;;;1.50;;
15230;SDS011;32569;51.762;8.564;2022-07-26T12:52:20;1.60;;;1.33;;
15230;SDS011;32569;51.762;8.564;2022-07-26T12:54:48;2.00;;;1.50;;
15230;SDS011;32569;51.762;8.564;2022-07-26T12:57:17;2.23;;;1.40;;
15230;SDS011;32569;51.762;8.564;2022-07-26T12:59:45;2.03;;;1.67;;
15230;SDS011;32569;51.762;8.564;2022-07-26T13:02:13;2.63;;;2.43;;
15230;SDS011;32569;51.762;8.564;2022-07-26T13:04:42;2.50;;;1.97;;
15230;SDS011;32569;51.762;8.564;2022-07-26T13:07:09;2.93;;;1.87;;
15230;SDS011;32569;51.762;8.564;2022-07-26T13:09:36;2.17;;;1.77;;
15230;SDS011;32569;51.762;8.564;2022-07-26T13:12:04;2.27;;;1.80;;
15230;SDS011;32569;51.762;8.564;2022-07-26T13:14:37;2.20;;;2.00;;
15230;SDS011;32569;51.762;8.564;2022-07-26T13:17:14;2.70;;;1.40;;
15230;SDS011;32569;51.762;8.564;2022-07-26T13:19:41;2.63;;;1.60;;
15230;SDS011;32569;51.762;8.564;2022-07-26T13:22:09;1.67;;;1.20;;
15230;SDS011;32569;51.762;8.564;2022-07-26T13:24:36;2.20;;;1.50;;
15230;SDS011;32569;51.762;8.564;2022-07-26T13:27:04;1.50;;;1.07;;
15230;SDS011;32569;51.762;8.564;2022-07-26T13:29:32;1.40;;;1.30;;
15230;SDS011;32569;51.762;8.564;2022-07-26T13:31:59;2.40;;;1.40;;
15230;SDS011;32569;51.762;8.564;2022-07-26T13:34:26;3.23;;;1.40;;
15230;SDS011;32569;51.762;8.564;2022-07-26T13:36:55;1.80;;;1.43;;
15230;SDS011;32569;51.762;8.564;2022-07-26T13:39:23;1.43;;;1.10;;
15230;SDS011;32569;51.762;8.564;2022-07-26T13:41:51;1.40;;;1.30;;
15230;SDS011;32569;51.762;8.564;2022-07-26T13:44:18;3.47;;;1.60;;
15230;SDS011;32569;51.762;8.564;2022-07-26T13:46:45;1.47;;;1.30;;
15230;SDS011;32569;51.762;8.564;2022-07-26T13:49:12;2.17;;;1.33;;
15230;SDS011;32569;51.762;8.564;2022-07-26T13:51:38;2.97;;;1.40;;
15230;SDS011;32569;51.762;8.564;2022-07-26T13:54:26;1.03;;;0.93;;
15230;SDS011;32569;51.762;8.564;2022-07-26T13:56:56;3.13;;;1.10;;
15230;SDS011;32569;51.762;8.564;2022-07-26T13:59:23;2.23;;;1.20;;
15230;SDS011;32569;51.762;8.564;2022-07-26T14:01:51;1.77;;;1.43;;
15230;SDS011;32569;51.762;8.564;2022-07-26T14:04:18;1.40;;;1.30;;
15230;SDS011;32569;51.762;8.564;2022-07-26T14:06:46;1.50;;;1.40;;
15230;SDS011;32569;51.762;8.564;2022-07-26T14:09:13;2.50;;;1.43;;
15230;SDS011;32569;51.762;8.564;2022-07-26T14:11:42;2.00;;;1.80;;
15230;SDS011;32569;51.762;8.564;2022-07-26T14:14:09;2.70;;;1.83;;
15230;SDS011;32569;51.762;8.564;2022-07-26T14:16:36;2.27;;;1.80;;
15230;SDS011;32569;51.762;8.564;2022-07-26T14:19:03;3.70;;;1.60;;
15230;SDS011;32569;51.762;8.564;2022-07-26T14:21:31;2.53;;;1.80;;
15230;SDS011;32569;51.762;8.564;2022-07-26T14:23:59;1.70;;;1.60;;
15230;SDS011;32569;51.762;8.564;2022-07-26T14:26:26;1.10;;;1.00;;
15230;SDS011;32569;51.762;8.564;2022-07-26T14:28:55;1.87;;;1.13;;
15230;SDS011;32569;51.762;8.564;2022-07-26T14:31:22;2.27;;;1.30;;
15230;SDS011;32569;51.762;8.564;2022-07-26T14:33:48;1.40;;;1.30;;
15230;SDS011;32569;51.762;8.564;2022-07-26T14:36:15;1.30;;;1.20;;
15230;SDS011;32569;51.762;8.564;2022-07-26T14:38:42;1.40;;;1.30;;
15230;SDS011;32569;51.762;8.564;2022-07-26T14:41:09;1.90;;;1.50;;
15230;SDS011;32569;51.762;8.564;2022-07-26T14:43:36;1.40;;;1.30;;
15230;SDS011;32569;51.762;8.564;2022-07-26T14:46:07;1.80;;;1.30;;
15230;SDS011;32569;51.762;8.564;2022-07-26T14:48:34;1.73;;;1.63;;
15230;SDS011;32569;51.762;8.564;2022-07-26T14:51:01;2.47;;;1.77;;
15230;SDS011;32569;51.762;8.564;2022-07-26T14:53:28;1.93;;;1.73;;
15230;SDS011;32569;51.762;8.564;2022-07-26T14:55:56;1.70;;;1.60;;
15230;SDS011;32569;51.762;8.564;2022-07-26T14:58:22;3.07;;;1.77;;
15230;SDS011;32569;51.762;8.564;2022-07-26T15:00:49;2.17;;;1.57;;
15230;SDS011;32569;51.762;8.564;2022-07-26T15:03:18;2.40;;;1.50;;
15230;SDS011;32569;51.762;8.564;2022-07-26T15:05:44;3.70;;;1.87;;
15230;SDS011;32569;51.762;8.564;2022-07-26T15:08:11;1.70;;;1.60;;
15230;SDS011;32569;51.762;8.564;2022-07-26T15:10:38;3.67;;;2.00;;